Relevés horaires Florennes (Belgique)


Relevés horaires à Florennes - Lundi 30 Juin 2025
Heure UTC1 Température [°C] Vent [km/h] Hum. [%] Pres.4 [hPa] Visi. [Km] Nébu. [octa] Préc.5 [mm] Cond.
2m. Res. Ros. Dir.2 Vit. Moy. Raf.3
20:00 26.6 26.6 17.6 NNO 1.9 -- 5.6 58 1015.2(0.0/3h) 20 1/8 -- --
19:00 28.3 28.3 17.6 NE 3.7 -- 7.4 52 1014.7(-0.6/3h) 20 1/8 -- --
18:00 30.0 30.0 16.5 ENE 5.6 -- 13.0 44 1014.6(-1.2/3h) 20 1/8 -- --
17:00 30.6 30.6 16.4 ENE 3.7 -- 9.3 42 1014.7(-1.4/3h) 20 1/8 -- --
16:00 30.6 30.6 16.4 NNO 1.9 -- 9.3 42 1015.2(-1.4/3h) 20 1/8 -- --
15:00 31.1 31.1 16.8 NNO 3.7 -- 13.0 42 1015.7(-1.3/3h) 20 1/8 -- --
14:00 30.2 30.2 16.0 NE 5.6 -- 13.0 42 1016.2(-1.4/3h) 20 1/8 -- --
13:00 29.9 29.9 16.3 E 5.6 -- 11.1 44 1016.8(-1.4/3h) 20 1/8 -- --
12:00 29.9 29.9 16.8 E 5.6 -- 11.1 45 1017.3(-1.2/3h) 20 1/8 -- --
11:00 28.3 28.3 16.0 ENE 5.6 -- 11.1 47 1018.1(-1.1/3h) 20 1/8 -- --
10:00 27.8 27.8 16.3 E 3.7 -- 11.1 50 1018.6(-0.6/3h) 20 1/8 -- --
09:00 26.5 26.5 17.5 ENE 3.7 -- 7.4 58 1019(-0.3/3h) 20 1/8 -- --
08:00 24.1 24.1 17.4 NNO 1.9 -- 5.6 66 1019.7(-0.1/3h) 20 1/8 -- --
07:00 22.1 22.1 17.5 E 3.7 -- 7.4 75 1019.8(-0.4/3h) 20 1/8 -- --
06:00 20.6 20.6 17.3 E 3.7 -- 5.6 81 1020.1(-0.6/3h) 20 1/8 -- --
05:00 18.3 18.3 16.5 NNO 1.9 -- 3.7 89 1020.5(-0.9/3h) 30 -- -- --
04:00 18.0 18.0 16.2 ENE 3.7 -- 3.7 89 1020.8(-1.0/3h) 30 -- -- --
03:00 18.2 18.2 16.2 NNO 1.9 -- 5.6 88 1021(-1.2/3h) 40 -- -- --
02:00 18.2 18.2 16.1 ENE 3.7 -- 5.6 88 1021.5(-1.1/3h) 45 -- -- --
01:00 18.8 18.8 16.2 NNO 1.9 -- 5.6 85 1021.7(-0.8/3h) 45 -- -- --
00:00 19.1 19.1 16.3 NNO 1.9 -- 11.1 84 1022.2(-0.4/3h) 15 -- -- --

1 Coordinated Universal Time. Actuellement il est 08:00 locale et 06:00 UTC.

2 Le vent souffle depuis la direction indiquée vers la direction oposée.

3 Les rafales max. sont disponible 40 min après l'heure du relevé.

4 Pour les stations d'altitude (plus de 600m) le géopotentiel du niveau le plus proche de la pression obligatoire est indiqué.

5 Les stations disposant d'un diffuseur peuvent indiquer "trace". Cela signifie que des précipitations ont touchés le sol mais que la quantité est inférieure à 0.1 mm.

Récapitulatif de la journée
Température [°C] Vent [km/h] Ensoleillement4 [h] Precipitations totale5 [mm] Pression [Hpa]
Min1 Max.2 Moy.3 Max. Min Max.
17.7 31.2 0 13.0 0 h 0 min 0 1014.6 1022.2

1 Température minimale relevée entre 18:00 UTC la veille et 18:00 UTC le jour donné.

2 Température maximale relevée entre 06:00 UTC le jour donné et 06:00 UTC le lendemain.

3 Vent moyen de la journée basé sur les relevés horaires.

4 Ensoleillement en heures relevé entre 06:00 UTC la veille et 06:00 UTC le jour donné.

5 Précipitations totales tombées entre 06:00 UTC la jour donné et 06:00 UTC le lendemain.

Graphiques horaires